createdAt,value
2023-03-13T00:00:44.139Z,7.82
2023-03-13T00:01:44.158Z,7.84
2023-03-13T00:02:44.118Z,7.82
2023-03-13T00:03:44.120Z,7.84
2023-03-13T00:04:44.114Z,7.84
2023-03-13T00:05:44.077Z,7.84
2023-03-13T00:06:44.047Z,7.84
2023-03-13T00:07:44.066Z,7.84
2023-03-13T00:08:44.029Z,7.85
2023-03-13T00:09:44.019Z,7.84
2023-03-13T00:10:44.016Z,7.84
2023-03-13T00:11:44.002Z,7.84
2023-03-13T00:12:43.986Z,7.84
2023-03-13T00:13:43.974Z,7.84
2023-03-13T00:14:43.954Z,7.84
2023-03-13T00:15:43.944Z,7.84
2023-03-13T00:16:43.976Z,7.84
2023-03-13T00:17:43.970Z,7.85
2023-03-13T00:18:43.893Z,7.85
2023-03-13T00:19:43.883Z,7.86
2023-03-13T00:20:43.874Z,7.85
2023-03-13T00:21:43.852Z,7.86
2023-03-13T00:22:43.860Z,7.85
2023-03-13T00:23:43.836Z,7.84
2023-03-13T00:24:43.821Z,7.84
2023-03-13T00:25:43.813Z,7.82
2023-03-13T00:26:43.781Z,7.81
2023-03-13T00:27:43.806Z,7.81
2023-03-13T00:28:45.809Z,7.79
2023-03-13T00:29:43.761Z,7.79
2023-03-13T00:30:43.791Z,7.77
2023-03-13T00:31:43.777Z,7.79
2023-03-13T00:32:43.768Z,7.76
2023-03-13T00:33:43.701Z,7.74
2023-03-13T00:34:43.680Z,7.74
2023-03-13T00:35:43.682Z,7.73
2023-03-13T00:36:43.659Z,7.73
2023-03-13T00:37:43.663Z,7.73
2023-03-13T00:38:43.631Z,7.71
2023-03-13T00:39:43.637Z,7.73
2023-03-13T00:40:43.611Z,7.71
2023-03-13T00:41:43.588Z,7.69
2023-03-13T00:42:43.610Z,7.70
2023-03-13T00:43:43.577Z,7.70
2023-03-13T00:44:43.558Z,7.70
2023-03-13T00:45:43.577Z,7.70
2023-03-13T00:46:43.520Z,7.69
2023-03-13T00:47:43.525Z,7.69
2023-03-13T00:48:43.507Z,7.67
2023-03-13T00:49:43.527Z,7.67
2023-03-13T00:50:43.469Z,7.69
2023-03-13T00:51:43.487Z,7.66
2023-03-13T00:52:43.455Z,7.67
2023-03-13T00:53:43.436Z,7.67
2023-03-13T00:54:43.425Z,7.66
2023-03-13T00:55:43.413Z,7.67
2023-03-13T00:56:43.393Z,7.67
2023-03-13T00:57:43.393Z,7.67
2023-03-13T00:58:43.376Z,7.67
2023-03-13T00:59:43.356Z,7.66
2023-03-13T01:00:43.337Z,7.66
2023-03-13T01:01:43.333Z,7.67
2023-03-13T01:02:43.414Z,7.66
2023-03-13T01:03:43.304Z,7.67
2023-03-13T01:04:43.308Z,7.66
2023-03-13T01:05:43.279Z,7.67
2023-03-13T01:06:43.376Z,7.66
2023-03-13T01:07:43.268Z,7.67
2023-03-13T01:08:43.235Z,7.67
2023-03-13T01:09:43.234Z,7.69
2023-03-13T01:10:43.215Z,7.69
2023-03-13T01:11:43.210Z,7.67
2023-03-13T01:12:43.188Z,7.66
2023-03-13T01:13:43.179Z,7.69
2023-03-13T01:14:43.166Z,7.69
2023-03-13T01:15:43.195Z,7.71
2023-03-13T01:16:43.141Z,7.74
2023-03-13T01:17:43.142Z,7.76
2023-03-13T01:18:43.124Z,7.76
2023-03-13T01:19:43.106Z,7.74
2023-03-13T01:20:43.088Z,7.77
2023-03-13T01:21:43.088Z,7.79
2023-03-13T01:22:43.073Z,7.77
2023-03-13T01:23:43.075Z,7.79
2023-03-13T01:24:43.046Z,7.77
2023-03-13T01:25:43.029Z,7.81
2023-03-13T01:26:43.012Z,7.82
2023-03-13T01:27:43.008Z,7.81
2023-03-13T01:28:42.996Z,7.84
2023-03-13T01:29:42.972Z,7.86
2023-03-13T01:30:43.005Z,7.85
2023-03-13T01:31:42.957Z,7.86
2023-03-13T01:32:42.984Z,7.85
2023-03-13T01:33:42.928Z,7.85
2023-03-13T01:34:42.914Z,7.84
2023-03-13T01:35:42.940Z,7.84
2023-03-13T01:36:42.875Z,7.82
2023-03-13T01:37:42.881Z,7.84
2023-03-13T01:38:42.864Z,7.82
2023-03-13T01:39:42.847Z,7.82
2023-03-13T01:40:42.828Z,7.82
2023-03-13T01:41:42.822Z,7.85
2023-03-13T01:42:42.807Z,7.85
2023-03-13T01:43:42.786Z,7.85
2023-03-13T01:44:42.777Z,7.85
2023-03-13T01:45:42.769Z,7.88
2023-03-13T01:46:42.761Z,7.86
2023-03-13T01:47:42.748Z,7.86
2023-03-13T01:48:42.720Z,7.86
2023-03-13T01:49:42.710Z,7.85
2023-03-13T01:50:42.696Z,7.85
2023-03-13T01:51:42.711Z,7.85
2023-03-13T01:52:42.671Z,7.84
2023-03-13T01:53:42.663Z,7.84
2023-03-13T01:54:42.625Z,7.84
2023-03-13T01:55:42.634Z,7.85
2023-03-13T01:56:42.621Z,7.85
2023-03-13T01:57:42.617Z,7.88
2023-03-13T01:58:42.625Z,7.88
2023-03-13T01:59:42.576Z,7.89
2023-03-13T02:00:42.567Z,7.92
2023-03-13T02:01:42.620Z,7.94
2023-03-13T02:02:42.619Z,7.94
2023-03-13T02:03:42.543Z,7.95
2023-03-13T02:04:42.505Z,7.95
2023-03-13T02:05:42.496Z,7.99
2023-03-13T02:06:42.474Z,7.99
2023-03-13T02:07:42.484Z,8.00
2023-03-13T02:08:42.458Z,8.02
2023-03-13T02:09:42.441Z,8.02
2023-03-13T02:10:42.424Z,8.02
2023-03-13T02:11:42.416Z,8.03
2023-03-13T02:12:42.430Z,8.06
2023-03-13T02:13:42.413Z,8.06
2023-03-13T02:14:42.371Z,8.09
2023-03-13T02:15:42.463Z,8.09
2023-03-13T02:16:42.355Z,8.10
2023-03-13T02:17:42.357Z,8.09
2023-03-13T02:18:42.330Z,8.10
2023-03-13T02:19:42.313Z,8.12
2023-03-13T02:20:42.293Z,8.13
2023-03-13T02:21:42.292Z,8.14
2023-03-13T02:22:42.294Z,8.14
2023-03-13T02:23:42.251Z,8.14
2023-03-13T02:24:42.239Z,8.14
2023-03-13T02:25:42.241Z,8.17
2023-03-13T02:26:42.219Z,8.14
2023-03-13T02:27:42.208Z,8.14
2023-03-13T02:28:42.179Z,8.14
2023-03-13T02:29:42.181Z,8.17
2023-03-13T02:30:42.158Z,8.14
2023-03-13T02:31:42.189Z,8.14
2023-03-13T02:32:42.215Z,8.17
2023-03-13T02:33:42.117Z,8.17
2023-03-13T02:34:42.113Z,8.18
2023-03-13T02:35:42.133Z,8.20
2023-03-13T02:36:42.086Z,8.18
2023-03-13T02:37:42.076Z,8.22
2023-03-13T02:38:42.058Z,8.28
2023-03-13T02:39:42.050Z,8.31
2023-03-13T02:40:42.026Z,8.34
2023-03-13T02:41:42.027Z,8.36
2023-03-13T02:42:42.020Z,8.36
2023-03-13T02:43:41.990Z,8.37
2023-03-13T02:44:42.110Z,8.36
2023-03-13T02:45:41.957Z,8.36
2023-03-13T02:46:41.976Z,8.34
2023-03-13T02:47:41.948Z,8.34
2023-03-13T02:48:41.936Z,8.32
2023-03-13T02:49:41.919Z,8.31
2023-03-13T02:50:41.901Z,8.28
2023-03-13T02:51:41.904Z,8.27
2023-03-13T02:52:41.893Z,8.27
2023-03-13T02:53:41.861Z,8.25
2023-03-13T02:54:41.855Z,8.24
2023-03-13T02:55:41.831Z,8.24
2023-03-13T02:56:41.827Z,8.24
2023-03-13T02:57:41.819Z,8.22
2023-03-13T02:58:49.854Z,8.21
2023-03-13T02:59:42.787Z,8.21
2023-03-13T03:00:41.795Z,8.20
2023-03-13T03:01:41.762Z,8.18
2023-03-13T03:02:41.764Z,8.17
2023-03-13T03:03:41.765Z,8.17
2023-03-13T03:04:41.723Z,8.14
2023-03-13T03:05:41.700Z,8.17
2023-03-13T03:06:41.695Z,8.13
2023-03-13T03:07:41.706Z,8.14
2023-03-13T03:08:41.682Z,8.13
2023-03-13T03:09:41.651Z,8.13
2023-03-13T03:10:41.652Z,8.13
2023-03-13T03:11:41.629Z,8.13
2023-03-13T03:12:41.625Z,8.10
2023-03-13T03:13:41.612Z,8.12
2023-03-13T03:14:41.597Z,8.13
2023-03-13T03:15:41.570Z,8.12
2023-03-13T03:16:41.590Z,8.13
2023-03-13T03:17:41.562Z,8.13
2023-03-13T03:18:41.533Z,8.14
2023-03-13T03:19:41.529Z,8.14
2023-03-13T03:20:41.519Z,8.18
2023-03-13T03:21:41.485Z,8.20
2023-03-13T03:22:41.489Z,8.20
2023-03-13T03:23:41.452Z,8.20
2023-03-13T03:24:41.454Z,8.20
2023-03-13T03:25:41.443Z,8.18
2023-03-13T03:26:41.422Z,8.20
2023-03-13T03:27:41.521Z,8.18
2023-03-13T03:28:41.402Z,8.18
2023-03-13T03:29:41.370Z,8.18
2023-03-13T03:30:41.368Z,8.18
2023-03-13T03:31:41.410Z,8.18
2023-03-13T03:32:41.359Z,8.18
2023-03-13T03:33:41.324Z,8.18
2023-03-13T03:34:41.308Z,8.17
2023-03-13T03:35:41.308Z,8.17
2023-03-13T03:36:41.301Z,8.17
2023-03-13T03:37:41.282Z,8.14
2023-03-13T03:38:41.258Z,8.14
2023-03-13T03:39:41.236Z,8.17
2023-03-13T03:40:41.240Z,8.17
2023-03-13T03:41:41.218Z,8.14
2023-03-13T03:42:41.216Z,8.14
2023-03-13T03:43:41.199Z,8.12
2023-03-13T03:44:41.186Z,8.12
2023-03-13T03:45:41.166Z,8.10
2023-03-13T03:46:41.231Z,8.13
2023-03-13T03:47:41.156Z,8.12
2023-03-13T03:48:41.134Z,8.13
2023-03-13T03:49:41.106Z,8.14
2023-03-13T03:50:41.114Z,8.17
2023-03-13T03:51:41.087Z,8.18
2023-03-13T03:52:41.089Z,8.18
2023-03-13T03:53:41.058Z,8.20
2023-03-13T03:54:41.068Z,8.20
2023-03-13T03:55:41.034Z,8.18
2023-03-13T03:56:41.039Z,8.18
2023-03-13T03:57:41.027Z,8.18
2023-03-13T03:58:41.000Z,8.17
2023-03-13T03:59:40.977Z,8.18
2023-03-13T04:00:40.966Z,8.17
2023-03-13T04:01:40.961Z,8.14
2023-03-13T04:02:41.045Z,8.14
2023-03-13T04:03:41.036Z,8.13
2023-03-13T04:04:40.916Z,8.14
2023-03-13T04:05:40.913Z,8.13
2023-03-13T04:06:40.896Z,8.13
2023-03-13T04:07:40.896Z,8.13
2023-03-13T04:08:40.877Z,8.14
2023-03-13T04:09:40.914Z,8.17
2023-03-13T04:10:40.836Z,8.14
2023-03-13T04:11:40.835Z,8.17
2023-03-13T04:12:40.836Z,8.14
2023-03-13T04:13:40.801Z,8.18
2023-03-13T04:14:40.806Z,8.20
2023-03-13T04:15:40.773Z,8.21
2023-03-13T04:16:40.809Z,8.21
2023-03-13T04:17:40.785Z,8.21
2023-03-13T04:18:40.735Z,8.24
2023-03-13T04:19:40.783Z,8.22
2023-03-13T04:20:40.744Z,8.21
2023-03-13T04:21:40.730Z,8.22
2023-03-13T04:22:40.743Z,8.22
2023-03-13T04:23:40.670Z,8.22
2023-03-13T04:24:40.714Z,8.22
2023-03-13T04:25:40.668Z,8.22
2023-03-13T04:26:40.627Z,8.22
2023-03-13T04:27:40.628Z,8.22
2023-03-13T04:28:40.614Z,8.22
2023-03-13T04:29:40.599Z,8.22
2023-03-13T04:30:40.685Z,8.24
2023-03-13T04:31:40.601Z,8.22
2023-03-13T04:32:40.640Z,8.22
2023-03-13T04:33:40.535Z,8.22
2023-03-13T04:34:40.641Z,8.24
2023-03-13T04:35:40.653Z,8.24
2023-03-13T04:36:40.502Z,8.22
2023-03-13T04:37:40.484Z,8.24
2023-03-13T04:38:40.480Z,8.25
2023-03-13T04:39:40.470Z,8.22
2023-03-13T04:40:40.456Z,8.22
2023-03-13T04:41:40.495Z,8.24
2023-03-13T04:42:40.431Z,8.22
2023-03-13T04:43:40.412Z,8.22
2023-03-13T04:44:43.053Z,8.22
2023-03-13T04:45:40.372Z,8.22
2023-03-13T04:46:40.369Z,8.24
2023-03-13T04:47:40.375Z,8.25
2023-03-13T04:48:40.376Z,8.28
2023-03-13T04:49:40.333Z,8.28
2023-03-13T04:50:40.318Z,8.27
2023-03-13T04:51:40.295Z,8.28
2023-03-13T04:52:40.315Z,8.27
2023-03-13T04:53:40.276Z,8.27
2023-03-13T04:54:40.262Z,8.25
2023-03-13T04:55:40.241Z,8.24
2023-03-13T04:56:43.693Z,8.27
2023-03-13T04:57:40.238Z,8.25
2023-03-13T04:58:40.228Z,8.25
2023-03-13T04:59:40.193Z,8.24
2023-03-13T05:00:40.180Z,8.25
2023-03-13T05:01:40.220Z,8.27
2023-03-13T05:02:40.181Z,8.25
2023-03-13T05:03:40.244Z,8.27
2023-03-13T05:04:40.243Z,8.25
2023-03-13T05:05:40.136Z,8.27
2023-03-13T05:06:40.128Z,8.27
2023-03-13T05:07:40.091Z,8.28
2023-03-13T05:08:40.096Z,8.29
2023-03-13T05:09:40.064Z,8.31
2023-03-13T05:10:40.063Z,8.31
2023-03-13T05:11:40.038Z,8.31
2023-03-13T05:12:40.036Z,8.32
2023-03-13T05:13:40.041Z,8.32
2023-03-13T05:14:40.001Z,8.36
2023-03-13T05:15:40.028Z,8.37
2023-03-13T05:16:39.990Z,8.39
2023-03-13T05:17:39.981Z,8.42
2023-03-13T05:18:39.958Z,8.45
2023-03-13T05:19:39.929Z,8.47
2023-03-13T05:20:39.940Z,8.47
2023-03-13T05:21:39.898Z,8.49
2023-03-13T05:22:39.908Z,8.49
2023-03-13T05:23:39.883Z,8.49
2023-03-13T05:24:41.890Z,8.49
2023-03-13T05:25:39.847Z,8.49
2023-03-13T05:26:39.851Z,8.49
2023-03-13T05:27:39.850Z,8.49
2023-03-13T05:28:39.819Z,8.49
2023-03-13T05:29:39.800Z,8.50
2023-03-13T05:30:39.934Z,8.50
2023-03-13T05:31:39.771Z,8.52
2023-03-13T05:32:39.816Z,8.50
2023-03-13T05:33:39.760Z,8.50
2023-03-13T05:34:39.736Z,8.52
2023-03-13T05:35:39.769Z,8.52
2023-03-13T05:36:39.706Z,8.52
2023-03-13T05:37:41.349Z,8.54
2023-03-13T05:38:39.689Z,8.57
2023-03-13T05:39:39.671Z,8.58
2023-03-13T05:40:39.656Z,8.60
2023-03-13T05:41:39.634Z,8.60
2023-03-13T05:42:39.715Z,8.60
2023-03-13T05:43:39.634Z,8.61
2023-03-13T05:44:39.605Z,8.60
2023-03-13T05:45:39.605Z,8.58
2023-03-13T05:46:39.631Z,8.58
2023-03-13T05:47:39.563Z,8.58
2023-03-13T05:48:39.558Z,8.58
2023-03-13T05:49:39.536Z,8.60
2023-03-13T05:50:39.522Z,8.60
2023-03-13T05:51:39.506Z,8.60
2023-03-13T05:52:39.525Z,8.61
2023-03-13T05:53:39.486Z,8.63
2023-03-13T05:54:39.471Z,8.64
2023-03-13T05:55:39.458Z,8.67
2023-03-13T05:56:39.453Z,8.68
2023-03-13T05:57:39.440Z,8.70
2023-03-13T05:58:39.420Z,8.70
2023-03-13T05:59:39.411Z,8.75
2023-03-13T06:00:39.414Z,8.75
2023-03-13T06:01:39.366Z,8.79
2023-03-13T06:02:39.374Z,8.79
2023-03-13T06:03:39.465Z,8.83
2023-03-13T06:04:39.497Z,8.85
2023-03-13T06:05:39.331Z,8.88
2023-03-13T06:06:39.311Z,8.88
2023-03-13T06:07:39.308Z,8.89
2023-03-13T06:08:39.292Z,8.91
2023-03-13T06:09:39.269Z,8.91
2023-03-13T06:10:39.259Z,8.91
2023-03-13T06:11:39.247Z,8.93
2023-03-13T06:12:39.253Z,8.94
2023-03-13T06:13:39.204Z,8.93
2023-03-13T06:14:39.209Z,8.94
2023-03-13T06:15:39.187Z,8.96
2023-03-13T06:16:39.177Z,9.00
2023-03-13T06:17:39.170Z,9.01
2023-03-13T06:18:39.155Z,9.00
2023-03-13T06:19:39.143Z,9.01
2023-03-13T06:20:40.691Z,9.01
2023-03-13T06:21:39.143Z,9.03
2023-03-13T06:22:39.107Z,9.03
2023-03-13T06:23:39.088Z,9.01
2023-03-13T06:24:39.068Z,9.04
2023-03-13T06:25:39.070Z,9.06
2023-03-13T06:26:39.066Z,9.08
2023-03-13T06:27:39.028Z,9.10
2023-03-13T06:28:39.017Z,9.10
2023-03-13T06:29:39.004Z,9.13
2023-03-13T06:30:39.005Z,9.13
2023-03-13T06:31:39.154Z,9.16
2023-03-13T06:32:39.102Z,9.17
2023-03-13T06:33:38.956Z,9.20
2023-03-13T06:34:38.935Z,9.22
2023-03-13T06:35:53.174Z,9.23
2023-03-13T06:36:39.956Z,9.24
2023-03-13T06:37:38.907Z,9.24
2023-03-13T06:38:38.884Z,9.23
2023-03-13T06:39:38.873Z,9.24
2023-03-13T06:40:38.855Z,9.24
2023-03-13T06:41:38.838Z,9.24
2023-03-13T06:42:38.838Z,9.23
2023-03-13T06:43:38.810Z,9.23
2023-03-13T06:44:38.808Z,9.24
2023-03-13T06:45:38.779Z,9.26
2023-03-13T06:46:38.803Z,9.27
2023-03-13T06:47:38.768Z,9.30
2023-03-13T06:48:38.749Z,9.32
2023-03-13T06:49:38.750Z,9.34
2023-03-13T06:50:38.716Z,9.34
2023-03-13T06:51:38.700Z,9.32
2023-03-13T06:52:43.987Z,9.35
2023-03-13T06:53:39.686Z,9.34
2023-03-13T06:54:38.665Z,9.35
2023-03-13T06:55:38.647Z,9.40
2023-03-13T06:56:38.628Z,9.44
2023-03-13T06:57:38.638Z,9.49
2023-03-13T06:58:38.612Z,9.52
2023-03-13T06:59:38.607Z,9.52
2023-03-13T07:00:38.623Z,9.53
2023-03-13T07:01:38.575Z,9.53
2023-03-13T07:02:38.574Z,9.55
2023-03-13T07:03:38.583Z,9.55
2023-03-13T07:04:38.534Z,9.56
2023-03-13T07:05:38.522Z,9.58
2023-03-13T07:06:38.499Z,9.60
2023-03-13T07:07:38.511Z,9.62
2023-03-13T07:08:38.517Z,9.67
2023-03-13T07:09:38.478Z,9.68
2023-03-13T07:10:38.456Z,9.70
2023-03-13T07:11:38.441Z,9.71
2023-03-13T07:12:38.443Z,9.73
2023-03-13T07:13:38.410Z,9.74
2023-03-13T07:14:38.398Z,9.78
2023-03-13T07:15:38.393Z,9.78
2023-03-13T07:16:38.417Z,9.80
2023-03-13T07:17:38.428Z,9.83
2023-03-13T07:18:38.387Z,9.85
2023-03-13T07:19:38.334Z,9.86
2023-03-13T07:20:38.345Z,9.86
2023-03-13T07:21:38.313Z,9.86
2023-03-13T07:22:38.310Z,9.88
2023-03-13T07:23:38.298Z,9.88
2023-03-13T07:24:38.321Z,9.89
2023-03-13T07:25:38.269Z,9.89
2023-03-13T07:26:38.279Z,9.91
2023-03-13T07:27:38.241Z,9.92
2023-03-13T07:28:38.220Z,9.92
2023-03-13T07:29:38.213Z,9.92
2023-03-13T07:30:38.191Z,9.93
2023-03-13T07:31:38.185Z,9.93
2023-03-13T07:32:38.239Z,9.96
2023-03-13T07:33:38.150Z,9.99
2023-03-13T07:34:38.138Z,10.02
2023-03-13T07:35:40.132Z,10.04
2023-03-13T07:36:38.132Z,10.04
2023-03-13T07:37:38.120Z,10.04
2023-03-13T07:38:38.087Z,10.07
2023-03-13T07:39:38.084Z,10.10
2023-03-13T07:40:38.059Z,10.13
2023-03-13T07:41:39.077Z,10.16
2023-03-13T07:42:38.051Z,10.17
2023-03-13T07:43:38.034Z,10.20
2023-03-13T07:44:38.008Z,10.24
2023-03-13T07:45:38.067Z,10.28
2023-03-13T07:46:37.977Z,10.28
2023-03-13T07:47:37.982Z,10.31
2023-03-13T07:48:37.962Z,10.35
2023-03-13T07:49:37.938Z,10.38
2023-03-13T07:50:38.045Z,10.38
2023-03-13T07:51:44.046Z,10.44
2023-03-13T07:52:38.908Z,10.47
2023-03-13T07:53:37.931Z,10.51
2023-03-13T07:54:37.865Z,10.55
2023-03-13T07:55:37.866Z,10.57
2023-03-13T07:56:37.854Z,10.60
2023-03-13T07:57:37.856Z,10.60
2023-03-13T07:58:37.826Z,10.65
2023-03-13T07:59:37.805Z,10.66
2023-03-13T08:00:37.791Z,10.68
2023-03-13T08:01:37.783Z,10.69
2023-03-13T08:02:37.859Z,10.72
2023-03-13T08:03:37.835Z,10.73
2023-03-13T08:04:37.737Z,10.76
2023-03-13T08:05:37.726Z,10.78
2023-03-13T08:06:37.721Z,10.83
2023-03-13T08:07:37.717Z,10.86
2023-03-13T08:08:37.756Z,10.88
2023-03-13T08:09:37.669Z,10.91
2023-03-13T08:10:37.655Z,10.93
2023-03-13T08:11:37.650Z,10.98
2023-03-13T08:12:37.648Z,11.02
2023-03-13T08:13:37.631Z,11.05
2023-03-13T08:14:37.607Z,11.11
2023-03-13T08:15:37.593Z,11.13
2023-03-13T08:16:37.602Z,11.19
2023-03-13T08:17:37.582Z,11.24
2023-03-13T08:18:37.552Z,11.28
2023-03-13T08:19:37.530Z,11.28
2023-03-13T08:20:37.511Z,11.31
2023-03-13T08:21:37.507Z,11.31
2023-03-13T08:22:37.500Z,11.30
2023-03-13T08:23:37.476Z,11.28
2023-03-13T08:24:37.462Z,11.28
2023-03-13T08:25:37.458Z,11.30
2023-03-13T08:26:37.447Z,11.28
2023-03-13T08:27:37.465Z,11.28
2023-03-13T08:28:37.409Z,11.30
2023-03-13T08:29:37.403Z,11.28
2023-03-13T08:30:37.418Z,11.30
2023-03-13T08:31:37.376Z,11.30
2023-03-13T08:32:37.394Z,11.28
2023-03-13T08:33:37.363Z,11.27
2023-03-13T08:34:37.315Z,11.24
2023-03-13T08:35:37.351Z,11.26
2023-03-13T08:36:37.316Z,11.21
2023-03-13T08:37:37.304Z,11.21
2023-03-13T08:38:37.264Z,11.21
2023-03-13T08:39:37.295Z,11.20
2023-03-13T08:40:37.243Z,11.17
2023-03-13T08:41:37.242Z,11.17
2023-03-13T08:42:37.227Z,11.17
2023-03-13T08:43:37.206Z,11.16
2023-03-13T08:44:37.184Z,11.16
2023-03-13T08:45:37.182Z,11.16
2023-03-13T08:46:37.208Z,11.19
2023-03-13T08:47:37.178Z,11.20
2023-03-13T08:48:37.136Z,11.19
2023-03-13T08:49:37.128Z,11.20
2023-03-13T08:50:37.109Z,11.21
2023-03-13T08:51:37.112Z,11.21
2023-03-13T08:52:37.108Z,11.23
2023-03-13T08:53:37.108Z,11.26
2023-03-13T08:54:37.069Z,11.28
2023-03-13T08:55:37.062Z,11.31
2023-03-13T08:56:37.038Z,11.35
2023-03-13T08:57:37.037Z,11.36
2023-03-13T08:58:37.005Z,11.41
2023-03-13T08:59:37.003Z,11.44
2023-03-13T09:00:36.988Z,11.46
2023-03-13T09:01:36.985Z,11.51
2023-03-13T09:02:36.995Z,11.53
2023-03-13T09:03:37.074Z,11.56
2023-03-13T09:04:36.928Z,11.60
2023-03-13T09:05:54.668Z,11.60
2023-03-13T09:06:37.907Z,11.62
2023-03-13T09:07:36.906Z,11.64
2023-03-13T09:08:36.880Z,11.66
2023-03-13T09:09:36.894Z,11.67
2023-03-13T09:10:36.853Z,11.69
2023-03-13T09:11:36.854Z,11.72
2023-03-13T09:12:36.834Z,11.75
2023-03-13T09:13:36.835Z,11.77
2023-03-13T09:14:37.030Z,11.79
2023-03-13T09:15:36.921Z,11.79
2023-03-13T09:16:36.779Z,11.82
2023-03-13T09:17:36.768Z,11.82
2023-03-13T09:18:36.755Z,11.85
2023-03-13T09:19:36.737Z,11.88
2023-03-13T09:20:36.717Z,11.93
2023-03-13T09:21:36.718Z,11.94
2023-03-13T09:22:36.708Z,11.96
2023-03-13T09:23:36.690Z,11.96
2023-03-13T09:24:36.666Z,11.94
2023-03-13T09:25:36.667Z,11.94
2023-03-13T09:26:36.639Z,11.94
2023-03-13T09:27:36.635Z,11.96
2023-03-13T09:28:36.605Z,11.94
2023-03-13T09:29:36.598Z,11.94
2023-03-13T09:30:36.587Z,11.96
2023-03-13T09:31:36.619Z,11.98
2023-03-13T09:32:36.617Z,12.01
2023-03-13T09:33:36.553Z,12.03
2023-03-13T09:34:36.515Z,12.04
2023-03-13T09:35:36.532Z,12.05
2023-03-13T09:36:36.702Z,12.08
2023-03-13T09:37:36.493Z,12.08
2023-03-13T09:38:36.464Z,12.11
2023-03-13T09:39:36.468Z,12.12
2023-03-13T09:40:36.444Z,12.15
2023-03-13T09:41:36.436Z,12.18
2023-03-13T09:42:36.433Z,12.18
2023-03-13T09:43:36.447Z,12.19
2023-03-13T09:44:36.397Z,12.22
2023-03-13T09:45:36.384Z,12.23
2023-03-13T09:46:36.410Z,12.26
2023-03-13T09:47:36.377Z,12.30
2023-03-13T09:48:36.354Z,12.33
2023-03-13T09:49:36.342Z,12.37
2023-03-13T09:50:36.317Z,12.40
2023-03-13T09:51:36.313Z,12.44
2023-03-13T09:52:36.303Z,12.46
2023-03-13T09:53:36.272Z,12.49
2023-03-13T09:54:36.262Z,12.54
2023-03-13T09:55:36.243Z,12.56
2023-03-13T09:56:36.230Z,12.59
2023-03-13T09:57:36.246Z,12.62
2023-03-13T09:58:36.199Z,12.66
2023-03-13T09:59:36.201Z,12.69
2023-03-13T10:00:36.170Z,12.70
2023-03-13T10:01:36.227Z,12.71
2023-03-13T10:02:36.175Z,12.73
2023-03-13T10:03:36.151Z,12.74
2023-03-13T10:04:36.174Z,12.76
2023-03-13T10:05:36.121Z,12.77
2023-03-13T10:06:36.111Z,12.80
2023-03-13T10:07:36.108Z,12.81
2023-03-13T10:08:36.077Z,12.85
2023-03-13T10:09:36.084Z,12.87
2023-03-13T10:10:36.037Z,12.88
2023-03-13T10:11:36.039Z,12.87
2023-03-13T10:12:36.026Z,12.87
2023-03-13T10:13:36.003Z,12.87
2023-03-13T10:14:35.986Z,12.87
2023-03-13T10:15:35.986Z,12.89
2023-03-13T10:16:36.068Z,12.92
2023-03-13T10:17:35.969Z,12.92
2023-03-13T10:18:35.941Z,12.94
2023-03-13T10:19:35.930Z,12.94
2023-03-13T10:20:35.908Z,12.96
2023-03-13T10:21:35.910Z,12.96
2023-03-13T10:22:35.906Z,12.99
2023-03-13T10:23:35.899Z,13.03
2023-03-13T10:24:35.854Z,13.03
2023-03-13T10:25:35.844Z,13.04
2023-03-13T10:26:35.842Z,13.06
2023-03-13T10:27:35.832Z,13.07
2023-03-13T10:28:35.805Z,13.09
2023-03-13T10:29:35.793Z,13.12
2023-03-13T10:30:35.767Z,13.13
2023-03-13T10:31:35.800Z,13.14
2023-03-13T10:32:35.818Z,13.17
2023-03-13T10:33:35.737Z,13.17
2023-03-13T10:34:35.727Z,13.17
2023-03-13T10:35:35.736Z,13.17
2023-03-13T10:36:35.708Z,13.16
2023-03-13T10:37:35.685Z,13.16
2023-03-13T10:38:35.668Z,13.16
2023-03-13T10:39:35.666Z,13.14
2023-03-13T10:40:35.657Z,13.14
2023-03-13T10:41:35.636Z,13.16
2023-03-13T10:42:35.625Z,13.16
2023-03-13T10:43:35.617Z,13.14
2023-03-13T10:44:35.591Z,13.14
2023-03-13T10:45:35.619Z,13.14
2023-03-13T10:46:35.668Z,13.14
2023-03-13T10:47:35.572Z,13.14
2023-03-13T10:48:35.542Z,13.14
2023-03-13T10:49:35.534Z,13.14
2023-03-13T10:50:35.545Z,13.14
2023-03-13T10:51:35.483Z,13.14
2023-03-13T10:52:35.495Z,13.16
2023-03-13T10:53:35.478Z,13.14
2023-03-13T10:54:35.458Z,13.16
2023-03-13T10:55:35.454Z,13.17
2023-03-13T10:56:35.424Z,13.19
2023-03-13T10:57:35.433Z,13.21
2023-03-13T10:58:35.411Z,13.19
2023-03-13T10:59:35.404Z,13.21
2023-03-13T11:00:35.366Z,13.21
2023-03-13T11:01:35.372Z,13.22
2023-03-13T11:02:35.673Z,13.25
2023-03-13T11:03:35.578Z,13.25
2023-03-13T11:04:35.333Z,13.28
2023-03-13T11:05:35.329Z,13.28
2023-03-13T11:06:35.314Z,13.29
2023-03-13T11:07:35.331Z,13.31
2023-03-13T11:08:35.401Z,13.35
2023-03-13T11:09:35.255Z,13.39
2023-03-13T11:10:35.256Z,13.44
2023-03-13T11:11:35.255Z,13.48
2023-03-13T11:12:35.249Z,13.57
2023-03-13T11:13:37.416Z,13.63
2023-03-13T11:14:35.216Z,13.72
2023-03-13T11:15:35.183Z,13.79
2023-03-13T11:16:35.215Z,13.86
2023-03-13T11:17:35.164Z,13.93
2023-03-13T11:18:35.148Z,13.99
2023-03-13T11:19:35.130Z,14.06
2023-03-13T11:20:35.125Z,14.12
2023-03-13T11:21:35.098Z,14.19
2023-03-13T11:22:35.285Z,14.27
2023-03-13T11:23:35.065Z,14.36
2023-03-13T11:24:35.067Z,14.46
2023-03-13T11:25:35.079Z,14.57
2023-03-13T11:26:35.035Z,14.67
2023-03-13T11:27:35.114Z,14.79
2023-03-13T11:28:35.011Z,14.90
2023-03-13T11:29:35.086Z,15.00
2023-03-13T11:30:34.996Z,15.12
2023-03-13T11:31:35.000Z,15.22
2023-03-13T11:32:35.018Z,15.33
2023-03-13T11:33:34.936Z,15.44
2023-03-13T11:34:34.938Z,15.55
2023-03-13T11:35:34.933Z,15.66
2023-03-13T11:36:34.922Z,15.76
2023-03-13T11:37:34.895Z,15.88
2023-03-13T11:38:34.874Z,15.98
2023-03-13T11:39:34.861Z,16.08
2023-03-13T11:40:34.856Z,16.18
2023-03-13T11:41:34.866Z,16.32
2023-03-13T11:42:34.851Z,16.41
2023-03-13T11:43:34.805Z,16.48
2023-03-13T11:44:34.794Z,16.55
2023-03-13T11:45:34.827Z,16.65
2023-03-13T11:46:34.900Z,16.73
2023-03-13T11:47:34.754Z,16.80
2023-03-13T11:48:34.740Z,16.87
2023-03-13T11:49:34.730Z,16.95
2023-03-13T11:50:34.714Z,17.02
2023-03-13T11:51:34.745Z,17.06
2023-03-13T11:52:34.705Z,17.09
2023-03-13T11:53:34.673Z,17.15
2023-03-13T11:54:34.653Z,17.17
2023-03-13T11:55:34.647Z,17.15
2023-03-13T11:56:34.634Z,17.15
2023-03-13T11:57:34.633Z,17.14
2023-03-13T11:58:34.619Z,17.15
2023-03-13T11:59:37.264Z,17.20
2023-03-13T12:00:34.606Z,17.27
2023-03-13T12:01:34.575Z,17.30
2023-03-13T12:02:34.674Z,17.32
2023-03-13T12:03:34.639Z,17.30
2023-03-13T12:04:34.534Z,17.30
2023-03-13T12:05:34.540Z,17.27
2023-03-13T12:06:34.499Z,17.24
2023-03-13T12:07:34.498Z,17.20
2023-03-13T12:08:34.554Z,17.21
2023-03-13T12:09:34.467Z,17.20
2023-03-13T12:10:34.445Z,17.24
2023-03-13T12:11:34.423Z,17.33
2023-03-13T12:12:34.439Z,17.42
2023-03-13T12:13:34.402Z,17.53
2023-03-13T12:14:34.394Z,17.55
2023-03-13T12:15:34.384Z,17.62
2023-03-13T12:16:34.396Z,17.71
2023-03-13T12:17:34.413Z,17.81
2023-03-13T12:18:34.338Z,17.87
2023-03-13T12:19:34.348Z,17.89
2023-03-13T12:20:34.312Z,17.91
2023-03-13T12:21:34.462Z,17.91
2023-03-13T12:22:34.585Z,17.86
2023-03-13T12:23:34.281Z,17.84
2023-03-13T12:24:34.250Z,17.80
2023-03-13T12:25:34.328Z,17.76
2023-03-13T12:26:34.232Z,17.68
2023-03-13T12:27:34.224Z,17.60
2023-03-13T12:28:34.297Z,17.55
2023-03-13T12:29:34.194Z,17.47
2023-03-13T12:30:34.257Z,17.42
2023-03-13T12:31:34.157Z,17.39
2023-03-13T12:32:34.196Z,17.35
2023-03-13T12:33:34.155Z,17.30
2023-03-13T12:34:34.126Z,17.25
2023-03-13T12:35:34.199Z,17.24
2023-03-13T12:36:34.129Z,17.20
2023-03-13T12:37:34.124Z,17.18
2023-03-13T12:38:34.075Z,17.15
2023-03-13T12:39:34.065Z,17.12
2023-03-13T12:40:34.048Z,17.09
2023-03-13T12:41:34.035Z,17.05
2023-03-13T12:42:34.060Z,17.02
2023-03-13T12:43:33.998Z,17.00
2023-03-13T12:44:33.990Z,17.02
2023-03-13T12:45:34.056Z,17.03
2023-03-13T12:46:34.018Z,17.03
2023-03-13T12:47:33.958Z,17.07
2023-03-13T12:48:34.023Z,17.10
2023-03-13T12:49:33.930Z,17.15
2023-03-13T12:50:33.925Z,17.18
2023-03-13T12:51:33.900Z,17.20
2023-03-13T12:52:33.902Z,17.24
2023-03-13T12:53:33.939Z,17.27
2023-03-13T12:54:33.899Z,17.27
2023-03-13T12:55:33.849Z,17.27
2023-03-13T12:56:33.834Z,17.25
2023-03-13T12:57:33.918Z,17.22
2023-03-13T12:58:33.808Z,17.20
2023-03-13T12:59:33.790Z,17.18
2023-03-13T13:00:33.778Z,17.18
2023-03-13T13:01:33.814Z,17.14
2023-03-13T13:02:33.804Z,17.09
2023-03-13T13:03:33.806Z,17.06
2023-03-13T13:04:33.787Z,17.06
2023-03-13T13:05:33.733Z,17.03
2023-03-13T13:06:33.703Z,17.02
2023-03-13T13:07:33.731Z,16.99